Caryville, TN (37714)

11:56 PM EDT on July 25, 2016 (GMT -0400)
Whitman Hollow Marina | | Change Station

Elev 1017 ft 36.31 °N, 84.10 °W | Updated 2 seconds ago

Clear
Clear
78.2 °F
Feels Like 81 °F
N
0.0
Wind Variable Wind from NW
Gusts 1.6 mph

Today
High -- | Low -- °F
--% Chance of Precip.
Yesterday
High -- | Low -- °F
Precip. -- in
Pressure 29.99 in
Visibility 10.0 miles
Clouds Clear
Heat Index 81 °F
Dew Point 71 °F
Humidity 79%
Rainfall 0.00 in
Snow Depth Not available.
6:38 AM 8:47 PM
Waning Gibbous, 59% visible
METAR KOQT 260353Z AUTO 00000KT 10SM CLR 28/22 A3005 RMK AO2 SLP155 T02780222
Pressure 29.99 in
Visibility 10.0 miles
Clouds Clear
Heat Index 81 °F
Dew Point 71 °F
Humidity 79%
Rainfall 0.00 in
Snow Depth Not available.
6:38 AM 8:47 PM
Waning Gibbous, 59% visible
METAR KOQT 260353Z AUTO 00000KT 10SM CLR 28/22 A3005 RMK AO2 SLP155 T02780222
Record highs are possible for parts of the Northeast Monday and Tuesday, as parts of the central U.S. take a little breather from the worst of summer's dog day heat.

Expansive high pressure in the upper atmosphere will focus on parts of the East and West this week, sending heat indices well into the triple digits from the Mid-Atlantic states into the South.

10-Day Weather Forecast

Almanac

Astronomy

Jul. 25, 2016 Rise Set
Actual Time
Civil Twilight
Nautical Twilight
Astronomical Twilight
Moon
Length of Visible Light
Length of Day
Tomorrow will be .
, % of the Moon is Illuminated

Today's Extremes

State Highs State Lows

Community

WunderPhotos

Upload Photos

1,927,523 photos uploaded!

WunderBlog® & News

Nearby

Air Quality

  Air Quality AQ Index Pollutant
Not available.

Snow Depth

Station Depth Elevation

Earthquake Activity

City Distance Mag. Time & Date
Minimum magnitude displayed is 2.5.

Coastal Water Temperatures

Place Temperature

Stations

Nearby Weather Stations

Station Location Temp. Windchill Dew Point Humidity Wind Precip. Elev Updated Type
                   

Watches & Warnings

There are currently no watches in effect.